1966 HELGA (1966253N14255)


On this page: IBTrACS data - Map and Plots - Positions - Intensities - Original source data

Summary

Start Sep 9
End Sep 17
Basin EP
LMI 75 kt
Sources hurdat_epa
jtwc_ep
td9636
atcf
ds824_ep
In WMO? Yes
Previous storm 1966 ELSIE (WP)
Previous in basin 1966 GRETCHEN (EP)
Concurrent storms 1966 CORA (WP)
1966 DORIS (WP)
1966 FRANCESCA (EP)
1966 GRETCHEN (EP)
1966 FLOSSIE (WP)
1966 ELSIE (WP)
1966 HELGA (EP)
1966 MISSING (WP)
1966 IONE (EP)
1966 22W (WP)
1966 #22 (EP)
1966 GRETCHEN (EP)
1966 GRACE (WP)
1966 JOYCE (EP)
1966 HELEN (WP)
Next in basin 1966 IONE (EP)
Next storm 1966 MISSING (WP)

top of page IBTrACS Data: File Access

No storm imagery available

top of page Plots:

Map of storm track will not appear if FTP is down
Time series of cyclone Maximum Sustained Wind will not appear if FTP is down
Time series of cyclone Minimum Central Pressure will not appear if FTP is down

top of page Track Data:Position

hurdat_epa jtwc_ep td9636 atcf ds824_ep
Date Lat Lon Lat Lon Lat Lon Lat Lon Lat Lon
1966-09-09 12:00:00 14.4 -105.2 14.4 -105.2 14.4 -105.2 14.4 -105.2 14.4 -105.2
1966-09-09 18:00:00 14.3 -106.3 14.3 -106.3 14.3 -106.3 14.3 -106.3 14.3 -106.3
1966-09-10 00:00:00 14.4 -107.3 14.4 -107.3 14.4 -107.3 14.4 -107.3 14.4 -107.3
1966-09-10 06:00:00 14.7 -108.1 14.7 -108.1 14.6 -108.1 14.7 -108.1 14.7 -108.1
1966-09-10 12:00:00 15.0 -108.8 15.0 -108.8 15.0 -108.8 15.0 -108.8 15.0 -108.8
1966-09-10 18:00:00 15.4 -109.5 15.4 -109.5 15.4 -109.5 15.4 -109.5 15.4 -109.5
1966-09-11 00:00:00 15.8 -110.2 15.8 -110.2 15.8 -110.2 15.8 -110.2 15.8 -110.2
1966-09-11 06:00:00 16.0 -111.0 16.0 -111.0 15.9 -111.0 16.0 -111.0 16.0 -111.0
1966-09-11 12:00:00 16.2 -111.9 16.2 -111.9 16.2 -111.9 16.2 -111.9 16.2 -111.9
1966-09-11 18:00:00 16.9 -112.9 16.9 -112.9 16.9 -112.9 16.9 -112.9 16.9 -112.9
1966-09-12 00:00:00 17.7 -113.9 17.7 -113.9 17.7 -113.9 17.7 -113.9 17.7 -113.9
1966-09-12 06:00:00 18.3 -114.6 18.3 -114.6 18.3 -114.7 18.3 -114.6 18.3 -114.6
1966-09-12 12:00:00 19.0 -115.3 19.0 -115.3 19.0 -115.3 19.0 -115.3 19.0 -115.3
1966-09-12 18:00:00 19.8 -115.8 19.8 -115.8 19.8 -115.8 19.8 -115.8 19.8 -115.8
1966-09-13 00:00:00 20.6 -116.1 20.6 -116.1 20.6 -116.1 20.6 -116.1 20.6 -116.1
1966-09-13 06:00:00 21.5 -116.3 21.5 -116.3 21.5 -116.3 21.5 -116.3 21.5 -116.3
1966-09-13 12:00:00 22.5 -116.3 22.5 -116.3 22.5 -116.3 22.5 -116.3 22.5 -116.3
1966-09-13 18:00:00 23.3 -116.3 23.3 -116.3 23.4 -116.3 23.3 -116.3 23.3 -116.3
1966-09-14 00:00:00 24.1 -116.2 24.1 -116.2 24.1 -116.2 24.1 -116.2 24.1 -116.2
1966-09-14 06:00:00 24.6 -116.1 24.6 -116.1 24.6 -116.1 24.6 -116.1 24.6 -116.1
1966-09-14 12:00:00 25.0 -115.9 25.0 -115.9 25.0 -115.9 25.0 -115.9 25.0 -115.9
1966-09-14 18:00:00 25.6 -115.5 25.6 -115.5 25.6 -115.5 25.6 -115.5 25.6 -115.5
1966-09-15 00:00:00 26.1 -114.9 26.1 -114.9 26.1 -114.9 26.1 -114.9 26.1 -114.9
1966-09-15 06:00:00 26.4 -114.0 26.4 -114.0 26.5 -114.0 26.4 -114.0 26.4 -114.0
1966-09-15 12:00:00 26.7 -113.0 26.7 -113.0 26.7 -113.0 26.7 -113.0 26.7 -113.0
hurdat_epa jtwc_ep td9636 atcf ds824_ep
1966-09-15 18:00:00 26.8 -112.4 26.8 -112.4 26.8 -112.4 26.8 -112.4
1966-09-16 00:00:00 27.0 -111.7 27.0 -111.7 27.0 -111.7 27.0 -111.7
1966-09-16 06:00:00 27.2 -111.0 27.2 -111.0 27.2 -111.0 27.2 -111.0
1966-09-16 12:00:00 27.3 -110.3 27.3 -110.3 27.3 -110.3 27.3 -110.3
1966-09-16 18:00:00 27.5 -109.4 27.5 -109.4 27.5 -109.4 27.5 -109.4
1966-09-17 00:00:00 27.8 -108.6 27.8 -108.6 27.8 -108.6 27.8 -108.6
1966-09-17 06:00:00 27.9 -107.8 27.9 -107.8 27.9 -107.8 27.9 -107.8
1966-09-17 12:00:00 28.0 -107.0 28.0 -107.0 28.0 -107.0 28.0 -107.0

top of pageTrack Data:Intensity

hurdat_epa jtwc_ep td9636 atcf ds824_ep
Date Wind Pres Wind Pres Wind Pres Wind Pres Wind Pres
1966-09-09 12:00:00 25. 25. 25. 25.
1966-09-09 18:00:00 45. 45. 45. 45.
1966-09-10 00:00:00 45. 45. 45. 45.
1966-09-10 06:00:00 45. 45. 45. 45.
1966-09-10 12:00:00 45. 45. 45. 45.
1966-09-10 18:00:00 45. 45. 45. 45.
1966-09-11 00:00:00 45. 45. 45. 45.
1966-09-11 06:00:00 45. 45. 45. 45.
1966-09-11 12:00:00 45. 45. 45. 45.
1966-09-11 18:00:00 45. 45. 45. 45.
1966-09-12 00:00:00 45. 45. 45. 45.
1966-09-12 06:00:00 45. 45. 45. 45.
1966-09-12 12:00:00 45. 45. 45. 45.
1966-09-12 18:00:00 75. 75. 75. 75.
1966-09-13 00:00:00 75. 75. 75. 75.
1966-09-13 06:00:00 75. 75. 75. 75.
1966-09-13 12:00:00 75. 75. 75. 75.
1966-09-13 18:00:00 75. 75. 75. 75.
1966-09-14 00:00:00 75. 75. 75. 75.
1966-09-14 06:00:00 45. 45. 45. 45.
1966-09-14 12:00:00 45. 45. 45. 45.
1966-09-14 18:00:00 45. 45. 45. 45.
1966-09-15 00:00:00 45. 45. 45. 45.
1966-09-15 06:00:00 45. 45. 45. 45.
1966-09-15 12:00:00 45. 45. 45. 45.
hurdat_epa jtwc_ep td9636 atcf ds824_ep
1966-09-15 18:00:00 25. 25. 25. 25.
1966-09-16 00:00:00 25. 25. 25. 25.
1966-09-16 06:00:00 25. 25. 25. 25.
1966-09-16 12:00:00 25. 25. 25. 25.
1966-09-16 18:00:00 25. 25. 25. 25.
1966-09-17 00:00:00 25. 25. 25. 25.
1966-09-17 06:00:00 25. 25. 25. 25.
1966-09-17 12:00:00 25. 25. 25. 25.

top of page Links to source data

Source Source file Format
hurdat_epa tracks1949to2011_epa.html:159:HELGA HURDAT
jtwc_ep bep081966.txt ATCF
td9636 cons_worldwide_trop_cyclone_18710101-19891231-002:Line=1458 TD 9636
atcf bep081966.dat ATCF
ds824_ep e_npac.dat:159:HELGA HURDAT